Time;durP1;ratioP1;P1;durP2;ratioP2;P2;SDS_P1;SDS_P2;PMS_P1;PMS_P2;Temp;Humidity;BMP_temperature;BMP_pressure;BME280_temperature;BME280_humidity;BME280_pressure;Samples;Min_cycle;Max_cycle;Signal;HPM_P1;HPM_P2
2022/12/26 00:00:59;;;;;;;10.20;5.63;;;13.10;99.90;;;;;;4858277;29;20157;-76
2022/12/26 00:03:25;;;;;;;11.35;6.50;;;13.00;99.90;;;;;;4858416;29;20056;-77
2022/12/26 00:05:51;;;;;;;;;;;13.30;99.90;;;;;;4858724;29;20049;-76
2022/12/26 00:08:17;;;;;;;10.10;6.28;;;14.10;99.90;;;;;;4858486;29;19924;-76
2022/12/26 00:10:43;;;;;;;12.52;6.80;;;13.90;99.90;;;;;;4858154;29;20068;-77
2022/12/26 00:13:09;;;;;;;11.27;6.75;;;13.10;99.90;;;;;;4843420;29;20498;-74
2022/12/26 00:15:39;;;;;;;9.80;5.70;;;14.10;99.90;;;;;;4857722;29;20064;-77
2022/12/26 00:18:04;;;;;;;13.27;7.32;;;14.00;99.90;;;;;;4858366;29;20052;-74
2022/12/26 00:20:30;;;;;;;10.07;5.60;;;14.00;99.90;;;;;;4858404;29;20045;-77
2022/12/26 00:22:56;;;;;;;8.93;5.63;;;13.30;99.90;;;;;;4860318;29;20045;-77
2022/12/26 00:25:21;;;;;;;9.77;4.85;;;14.10;99.90;;;;;;4842934;29;20525;-74
2022/12/26 00:27:47;;;;;;;9.05;5.05;;;13.20;99.90;;;;;;4842699;29;20069;-76
2022/12/26 00:30:13;;;;;;;11.48;5.82;;;13.30;99.90;;;;;;4827096;29;20053;-76
2022/12/26 00:32:38;;;;;;;10.65;6.10;;;13.30;99.90;;;;;;4857873;29;20053;-76
2022/12/26 00:35:06;;;;;;;12.88;7.05;;;13.20;99.90;;;;;;4857939;29;20053;-76
2022/12/26 00:37:31;;;;;;;13.68;6.97;;;13.90;99.90;;;;;;4842786;29;20460;-76
2022/12/26 00:39:57;;;;;;;10.35;5.95;;;13.20;99.90;;;;;;4858184;29;20050;-76
2022/12/26 00:42:23;;;;;;;11.15;6.25;;;13.20;99.90;;;;;;4857757;29;20525;-76
2022/12/26 00:44:48;;;;;;;9.82;5.97;;;14.20;99.90;;;;;;4857772;29;20057;-77
2022/12/26 00:47:14;;;;;;;11.57;6.28;;;13.30;99.90;;;;;;4842673;29;20054;-77
2022/12/26 00:49:40;;;;;;;14.55;8.57;;;14.20;99.90;;;;;;4857890;29;20058;-76
2022/12/26 00:52:05;;;;;;;18.17;9.25;;;13.30;99.90;;;;;;4842807;29;20573;-77
2022/12/26 00:54:31;;;;;;;19.15;10.35;;;14.20;99.90;;;;;;4857142;29;20057;-76
2022/12/26 00:56:57;;;;;;;17.70;9.27;;;13.30;99.90;;;;;;4843158;29;20077;-75
2022/12/26 00:59:23;;;;;;;17.17;8.13;;;13.50;99.90;;;;;;4856941;29;20058;-75
2022/12/26 01:01:48;;;;;;;17.02;9.05;;;14.10;99.90;;;;;;4857480;29;20124;-75
2022/12/26 01:04:14;;;;;;;17.08;8.63;;;13.20;99.90;;;;;;4857451;29;20041;-76
2022/12/26 01:06:40;;;;;;;16.33;8.52;;;14.30;99.90;;;;;;4842880;29;20193;-76
2022/12/26 01:09:05;;;;;;;17.25;8.88;;;14.10;99.90;;;;;;4857273;29;20391;-76
2022/12/26 01:11:40;;;;;;;15.75;8.00;;;13.90;99.90;;;;;;4843502;29;20045;-76
2022/12/26 01:14:08;;;;;;;15.95;8.43;;;13.20;99.90;;;;;;4861206;29;20072;-76
2022/12/26 01:16:34;;;;;;;16.35;8.05;;;13.70;99.90;;;;;;4862121;29;20078;-75
2022/12/26 01:19:00;;;;;;;13.70;7.13;;;13.40;99.90;;;;;;4861164;29;20049;-75
2022/12/26 01:21:25;;;;;;;12.43;6.70;;;13.50;99.90;;;;;;4861011;29;20130;-76
2022/12/26 01:23:51;;;;;;;17.30;7.70;;;14.10;99.90;;;;;;4845188;29;20052;-76
2022/12/26 01:26:17;;;;;;;15.43;7.90;;;14.00;99.90;;;;;;4860674;29;20136;-76
2022/12/26 01:28:42;;;;;;;20.65;9.40;;;13.50;99.90;;;;;;4845741;29;20057;-76
2022/12/26 01:31:08;;;;;;;19.60;9.18;;;13.70;99.90;;;;;;4860340;29;20041;-70
2022/12/26 01:33:34;;;;;;;20.05;9.75;;;14.10;99.90;;;;;;4860197;29;20505;-70
2022/12/26 01:36:00;;;;;;;;;;;13.60;99.90;;;;;;4845199;29;20068;-70
2022/12/26 01:38:26;;;;;;;17.05;8.40;;;13.30;99.90;;;;;;4860210;29;20319;-70
2022/12/26 01:41:15;;;;;;;20.30;9.60;;;13.30;99.90;;;;;;4845120;29;20053;-70
2022/12/26 01:43:46;;;;;;;19.30;9.70;;;13.80;99.90;;;;;;4859606;29;20410;-70
2022/12/26 01:46:13;;;;;;;30.13;13.50;;;14.10;99.90;;;;;;4859928;29;20041;-70
2022/12/26 01:48:39;;;;;;;17.63;9.35;;;13.80;99.90;;;;;;4859944;29;20088;-70
2022/12/26 01:51:06;;;;;;;18.05;9.10;;;14.40;99.90;;;;;;4844604;29;20443;-70
2022/12/26 01:53:46;;;;;;;17.42;8.65;;;14.30;99.90;;;;;;4829294;29;20064;-70
2022/12/26 01:56:15;;;;;;;17.77;8.32;;;14.50;99.90;;;;;;4859730;29;20479;-69
2022/12/26 01:59:05;;;;;;;20.63;10.27;;;14.10;99.90;;;;;;4859634;29;20060;-69
2022/12/26 02:01:33;;;;;;;21.60;9.77;;;13.50;99.90;;;;;;4859419;29;20045;-70
2022/12/26 02:06:48;;;;;;;25.45;12.50;;;13.80;99.90;;;;;;4859304;29;20061;-69
2022/12/26 02:09:14;;;;;;;29.02;13.70;;;14.40;99.90;;;;;;4844243;29;20105;-70
2022/12/26 02:11:52;;;;;;;25.08;12.70;;;14.30;99.90;;;;;;4860809;29;20053;-70
2022/12/26 02:14:18;;;;;;;19.92;10.25;;;14.50;99.90;;;;;;4859299;29;20057;-70
2022/12/26 02:16:45;;;;;;;19.55;9.77;;;14.50;99.90;;;;;;4844298;29;20054;-70
2022/12/26 02:19:51;;;;;;;17.15;8.98;;;13.90;99.90;;;;;;4844027;29;20053;-70
2022/12/26 02:22:32;;;;;;;15.00;8.15;;;14.10;99.90;;;;;;4856362;29;20064;-69
2022/12/26 02:25:19;;;;;;;12.85;7.80;;;13.60;99.90;;;;;;4842966;29;20553;-70
2022/12/26 02:28:17;;;;;;;14.65;8.80;;;13.70;99.90;;;;;;4859174;29;20100;-70
2022/12/26 02:31:04;;;;;;;15.95;8.55;;;14.00;99.90;;;;;;4859238;29;20053;-71
2022/12/26 02:33:35;;;;;;;17.90;8.43;;;13.60;99.90;;;;;;4859104;29;20497;-69
2022/12/26 02:36:46;;;;;;;19.60;9.00;;;14.50;99.90;;;;;;4858895;29;20102;-70
2022/12/26 02:39:23;;;;;;;16.23;8.90;;;14.60;99.90;;;;;;4831529;29;20052;-76
2022/12/26 02:42:20;;;;;;;15.15;7.88;;;13.70;99.90;;;;;;4860318;29;20521;-76
2022/12/26 02:48:14;;;;;;;14.45;7.82;;;14.00;99.90;;;;;;4859363;29;20105;-76
2022/12/26 03:14:46;;;;;;;14.05;8.82;;;13.70;99.90;;;;;;4859126;29;20068;-77
2022/12/26 03:17:20;;;;;;;14.85;10.18;;;13.90;99.90;;;;;;4858856;29;20056;-76
2022/12/26 03:19:59;;;;;;;12.88;9.02;;;14.00;99.90;;;;;;4844758;29;20068;-76
2022/12/26 03:22:35;;;;;;;16.98;10.98;;;13.80;99.90;;;;;;4859159;29;20045;-76
2022/12/26 03:27:50;;;;;;;14.20;10.30;;;13.80;99.90;;;;;;4859491;29;20397;-76
2022/12/26 03:33:00;;;;;;;22.65;14.93;;;14.70;99.90;;;;;;4860001;29;20071;-76
2022/12/26 03:35:30;;;;;;;21.38;13.98;;;13.90;99.90;;;;;;4843866;29;20128;-74
2022/12/26 03:38:03;;;;;;;19.95;13.15;;;14.00;99.90;;;;;;4844170;29;20077;-75
2022/12/26 04:44:35;;;;;;;23.98;15.40;;;14.90;99.90;;;;;;4858197;29;20098;-77
2022/12/26 04:47:00;;;;;;;25.92;15.80;;;14.90;99.90;;;;;;4842339;29;20061;-77
2022/12/26 04:52:13;;;;;;;22.98;14.93;;;14.30;99.90;;;;;;4858548;29;20117;-78
2022/12/26 04:54:40;;;;;;;24.83;15.23;;;14.50;99.90;;;;;;4842524;29;20052;-77
2022/12/26 04:57:06;;;;;;;23.27;15.20;;;14.30;99.90;;;;;;4859480;29;20046;-77
2022/12/26 04:59:33;;;;;;;25.27;15.93;;;14.40;99.90;;;;;;4858322;29;20065;-76
2022/12/26 05:10:26;;;;;;;24.10;16.45;;;14.30;99.90;;;;;;4858069;29;20054;-77
2022/12/26 05:12:53;;;;;;;25.83;17.02;;;14.30;99.90;;;;;;4858337;29;20409;-77
2022/12/26 05:15:19;;;;;;;25.63;17.55;;;14.10;99.90;;;;;;4857536;29;20084;-76
2022/12/26 05:28:59;;;;;;;25.48;17.75;;;14.30;99.90;;;;;;4855782;29;20217;-77
2022/12/26 05:31:24;;;;;;;24.63;17.00;;;14.10;99.90;;;;;;4839861;29;20081;-76
2022/12/26 05:34:11;;;;;;;25.77;17.73;;;14.50;99.90;;;;;;4840341;29;20084;-76
2022/12/26 05:36:40;;;;;;;25.27;17.85;;;13.90;99.90;;;;;;4840659;29;20133;-76
2022/12/26 05:39:07;;;;;;;26.83;17.92;;;13.80;99.90;;;;;;4824432;29;20052;-77
2022/12/26 05:41:33;;;;;;;27.60;18.38;;;14.30;99.90;;;;;;4839947;29;20081;-77
2022/12/26 05:43:59;;;;;;;28.17;19.25;;;14.30;99.90;;;;;;4839407;29;20121;-76
2022/12/26 05:46:25;;;;;;;25.40;18.17;;;14.30;99.90;;;;;;4823323;29;20128;-70
2022/12/26 05:48:51;;;;;;;22.85;17.02;;;14.30;99.90;;;;;;4838146;29;20097;-70
2022/12/26 05:51:16;;;;;;;24.90;17.38;;;14.20;99.90;;;;;;4838753;29;20057;-70
2022/12/26 05:53:42;;;;;;;26.58;17.42;;;13.90;99.90;;;;;;4838735;29;20470;-70
2022/12/26 05:56:14;;;;;;;22.60;16.50;;;13.80;99.90;;;;;;4837950;29;20116;-69
2022/12/26 05:58:40;;;;;;;29.33;18.67;;;13.80;99.90;;;;;;4838413;29;20078;-70
2022/12/26 06:01:14;;;;;;;25.38;16.80;;;14.10;99.90;;;;;;4840485;29;20081;-70
2022/12/26 06:03:44;;;;;;;24.63;17.63;;;14.00;99.90;;;;;;4841588;29;20049;-70
2022/12/26 06:06:10;;;;;;;27.40;18.40;;;13.90;99.90;;;;;;4826435;29;20046;-70
2022/12/26 06:08:36;;;;;;;25.67;18.15;;;13.90;99.90;;;;;;4840993;29;20053;-70
2022/12/26 06:11:07;;;;;;;24.27;18.02;;;14.00;99.90;;;;;;4841266;29;20061;-70
2022/12/26 06:13:33;;;;;;;23.98;18.40;;;13.90;99.90;;;;;;4841503;29;20089;-70
2022/12/26 06:16:02;;;;;;;24.33;18.35;;;13.70;99.90;;;;;;4841116;29;20038;-70
2022/12/26 06:18:28;;;;;;;27.27;19.02;;;13.80;99.90;;;;;;4825831;29;20316;-70
2022/12/26 06:20:53;;;;;;;25.05;18.27;;;13.90;99.90;;;;;;4826016;29;20079;-70
2022/12/26 06:23:19;;;;;;;25.40;19.13;;;13.80;99.90;;;;;;4832494;29;20576;-71
2022/12/26 06:25:53;;;;;;;24.23;18.42;;;13.80;99.90;;;;;;4844264;29;20140;-71
2022/12/26 06:28:19;;;;;;;23.55;16.90;;;13.60;99.90;;;;;;4859668;29;20042;-71
2022/12/26 06:30:44;;;;;;;21.20;16.02;;;13.50;99.90;;;;;;4843800;29;20466;-71
2022/12/26 06:33:10;;;;;;;21.50;16.67;;;13.70;99.90;;;;;;4828731;29;20061;-71
2022/12/26 06:35:35;;;;;;;20.98;16.40;;;13.80;99.90;;;;;;4859123;29;20159;-70
2022/12/26 06:38:01;;;;;;;23.13;16.90;;;13.70;99.90;;;;;;4859490;29;20486;-73
2022/12/26 06:40:27;;;;;;;20.88;16.33;;;13.70;99.90;;;;;;4828452;29;20410;-70
2022/12/26 06:42:53;;;;;;;20.15;15.38;;;13.50;99.90;;;;;;4860394;29;20152;-70
2022/12/26 06:45:19;;;;;;;22.05;16.58;;;13.70;99.90;;;;;;4859072;29;20509;-70
2022/12/26 06:47:45;;;;;;;20.80;16.15;;;13.70;99.90;;;;;;4843865;29;20053;-70
2022/12/26 06:50:11;;;;;;;19.17;15.07;;;13.40;99.90;;;;;;4828434;29;20041;-70
2022/12/26 06:52:37;;;;;;;18.25;13.93;;;13.50;99.90;;;;;;4860227;29;20049;-71
2022/12/26 06:55:03;;;;;;;17.65;13.95;;;13.50;99.90;;;;;;4843323;29;20056;-70
2022/12/26 06:57:29;;;;;;;;;;;13.50;99.90;;;;;;4860711;29;20057;-70
2022/12/26 06:59:54;;;;;;;20.60;14.45;;;13.40;99.90;;;;;;4858614;29;20011;-71
2022/12/26 07:02:20;;;;;;;19.27;14.98;;;13.40;99.90;;;;;;4843308;29;20132;-70
2022/12/26 07:04:46;;;;;;;17.98;14.10;;;13.30;99.90;;;;;;4843241;29;20092;-70
2022/12/26 07:07:11;;;;;;;19.25;13.85;;;13.40;99.90;;;;;;4828452;29;20149;-71
2022/12/26 07:09:37;;;;;;;16.27;13.00;;;13.60;99.90;;;;;;4858870;29;20498;-71
2022/12/26 07:12:03;;;;;;;21.45;13.57;;;13.50;99.90;;;;;;4858396;29;20068;-70
2022/12/26 07:14:28;;;;;;;14.52;12.50;;;13.50;99.90;;;;;;4827906;29;20049;-70
2022/12/26 07:16:54;;;;;;;16.40;13.45;;;13.30;99.90;;;;;;4859827;29;20136;-71
2022/12/26 07:19:20;;;;;;;16.88;12.77;;;13.40;99.90;;;;;;4858448;29;20336;-71
2022/12/26 07:21:45;;;;;;;16.83;12.63;;;13.30;99.90;;;;;;4858573;29;20072;-71
2022/12/26 07:24:17;;;;;;;17.55;12.93;;;13.30;99.90;;;;;;4839997;29;20050;-71
2022/12/26 07:26:43;;;;;;;17.35;12.07;;;13.40;99.90;;;;;;4840378;29;20056;-71
2022/12/26 07:29:10;;;;;;;17.70;12.68;;;13.20;99.90;;;;;;4839738;29;20577;-71
2022/12/26 07:31:36;;;;;;;17.95;12.02;;;13.20;99.90;;;;;;4839588;29;20140;-72
2022/12/26 07:34:02;;;;;;;15.93;11.48;;;13.30;99.90;;;;;;4840015;29;20133;-70
2022/12/26 07:36:28;;;;;;;13.68;9.73;;;13.30;99.90;;;;;;4809423;29;20049;-71
2022/12/26 07:38:54;;;;;;;14.00;9.55;;;13.20;99.90;;;;;;4839777;29;20583;-70
2022/12/26 07:44:05;;;;;;;13.52;9.75;;;13.10;99.90;;;;;;4854735;29;20206;-70
2022/12/26 07:46:31;;;;;;;15.20;9.70;;;13.00;99.90;;;;;;4824454;29;20565;-70
2022/12/26 07:48:56;;;;;;;13.32;10.23;;;12.90;99.90;;;;;;4839673;29;20065;-70
2022/12/26 07:51:22;;;;;;;14.05;9.90;;;12.80;99.90;;;;;;4839234;29;20130;-70
2022/12/26 07:53:48;;;;;;;11.43;9.20;;;12.80;99.90;;;;;;4839421;29;20081;-69
2022/12/26 07:56:14;;;;;;;11.43;9.13;;;12.80;99.90;;;;;;4824342;29;20133;-70
2022/12/26 07:58:40;;;;;;;11.18;8.15;;;12.70;99.90;;;;;;4839492;29;20061;-70
2022/12/26 08:01:05;;;;;;;14.30;8.95;;;12.70;99.90;;;;;;4824328;29;20038;-70
2022/12/26 08:03:32;;;;;;;12.15;8.90;;;12.70;99.90;;;;;;4839643;29;20058;-71
2022/12/26 08:05:58;;;;;;;10.90;8.18;;;12.60;99.90;;;;;;4824139;29;20137;-72
2022/12/26 08:08:24;;;;;;;11.75;8.70;;;12.60;99.90;;;;;;4824357;29;20054;-71
2022/12/26 08:11:01;;;;;;;14.35;9.65;;;12.40;99.90;;;;;;4809008;29;20054;-71
2022/12/26 08:13:28;;;;;;;17.67;8.63;;;12.40;99.90;;;;;;4823958;29;20499;-71
2022/12/26 08:15:54;;;;;;;12.95;8.85;;;12.30;99.90;;;;;;4839137;29;20076;-71
2022/12/26 08:18:19;;;;;;;10.70;7.88;;;12.30;99.90;;;;;;4838905;29;20498;-71
2022/12/26 08:20:45;;;;;;;11.48;7.78;;;12.20;99.90;;;;;;4839277;29;20049;-71
2022/12/26 08:23:11;;;;;;;9.70;7.68;;;12.30;99.90;;;;;;4829043;29;20537;-71
2022/12/26 08:25:36;;;;;;;11.18;7.43;;;12.30;99.90;;;;;;4842471;29;20065;-70
2022/12/26 08:28:02;;;;;;;12.18;7.82;;;12.30;99.90;;;;;;4857467;29;20057;-70
2022/12/26 08:30:28;;;;;;;12.93;7.20;;;12.20;99.90;;;;;;4857129;29;20092;-70
2022/12/26 08:32:53;;;;;;;10.38;6.88;;;12.10;99.90;;;;;;4857359;29;20049;-71
2022/12/26 08:35:19;;;;;;;10.20;6.63;;;12.10;99.90;;;;;;4857322;29;20077;-71
2022/12/26 08:37:46;;;;;;;8.38;6.35;;;12.10;99.90;;;;;;4857687;29;20102;-70
2022/12/26 08:40:12;;;;;;;9.65;6.72;;;12.00;99.90;;;;;;4857313;29;20189;-70
2022/12/26 08:42:38;;;;;;;12.90;6.63;;;12.00;99.90;;;;;;4857173;29;20101;-70
2022/12/26 08:45:04;;;;;;;10.25;6.70;;;12.00;99.90;;;;;;4857032;29;20109;-71
2022/12/26 08:47:30;;;;;;;10.60;6.25;;;11.90;99.90;;;;;;4856970;29;20041;-71
2022/12/26 08:49:56;;;;;;;11.73;6.18;;;12.00;99.90;;;;;;4841656;29;20046;-71
2022/12/26 08:52:21;;;;;;;9.80;5.90;;;11.90;99.90;;;;;;4841669;29;20053;-71
2022/12/26 08:54:47;;;;;;;9.57;6.25;;;11.80;99.90;;;;;;4857003;29;20501;-71
2022/12/26 08:57:12;;;;;;;11.57;6.32;;;11.70;99.90;;;;;;4841812;29;20059;-71
2022/12/26 08:59:38;;;;;;;10.38;6.35;;;11.70;99.90;;;;;;4811469;29;20042;-70
2022/12/26 09:02:04;;;;;;;9.05;6.25;;;11.70;99.90;;;;;;4858088;29;20049;-77
2022/12/26 09:04:30;;;;;;;11.23;6.50;;;11.60;99.90;;;;;;4843106;29;20407;-76
2022/12/26 09:06:56;;;;;;;15.18;6.78;;;11.60;99.90;;;;;;4857623;29;20821;-76
2022/12/26 09:09:21;;;;;;;8.13;6.45;;;11.60;99.90;;;;;;4842769;29;20089;-76
2022/12/26 09:11:47;;;;;;;10.93;6.32;;;11.60;99.90;;;;;;4842825;29;20053;-76
2022/12/26 09:14:13;;;;;;;8.73;6.13;;;11.50;99.90;;;;;;4841988;29;20102;-76
2022/12/26 09:16:42;;;;;;;9.35;6.57;;;11.50;99.90;;;;;;4842355;29;20098;-76
2022/12/26 09:19:11;;;;;;;7.57;6.00;;;11.60;99.90;;;;;;4841846;29;20529;-76
2022/12/26 09:21:39;;;;;;;6.85;5.88;;;11.60;99.90;;;;;;4857964;29;20041;-76
2022/12/26 09:24:08;;;;;;;9.40;6.38;;;11.50;99.90;;;;;;4857894;29;20128;-77
2022/12/26 09:26:35;;;;;;;10.50;6.00;;;11.70;99.90;;;;;;4857506;29;20045;-76
2022/12/26 09:29:01;;;;;;;;;;;11.70;99.90;;;;;;4858184;29;20390;-76
2022/12/26 09:31:29;;;;;;;6.90;5.47;;;11.60;99.90;;;;;;4857552;29;19920;-76
2022/12/26 09:33:55;;;;;;;9.52;6.00;;;11.60;99.90;;;;;;4858520;29;20053;-76
2022/12/26 09:36:34;;;;;;;9.00;5.45;;;11.70;99.90;;;;;;4860862;29;20045;-76
2022/12/26 09:39:00;;;;;;;10.98;4.93;;;11.70;99.90;;;;;;4862518;29;20117;-76
2022/12/26 09:41:34;;;;;;;6.50;3.90;;;11.60;99.90;;;;;;4862558;29;20053;-76
2022/12/26 09:44:21;;;;;;;10.57;3.50;;;11.80;99.90;;;;;;4860645;29;20061;-76
2022/12/26 09:46:58;;;;;;;10.85;2.92;;;11.80;99.90;;;;;;4861146;29;20426;-70
2022/12/26 09:49:36;;;;;;;8.73;3.17;;;11.70;99.90;;;;;;4860326;29;20064;-72
2022/12/26 09:52:11;;;;;;;16.08;3.60;;;11.50;99.90;;;;;;4860543;29;20064;-71
2022/12/26 09:54:41;;;;;;;12.43;2.70;;;11.10;99.90;;;;;;4860253;29;20060;-71
2022/12/26 09:57:14;;;;;;;13.05;2.60;;;10.70;99.90;;;;;;4860320;29;20041;-70
2022/12/26 09:59:55;;;;;;;7.85;1.88;;;10.20;99.90;;;;;;4859790;29;20045;-71
2022/12/26 10:02:23;;;;;;;7.60;1.67;;;9.70;99.90;;;;;;4859862;29;20057;-72
2022/12/26 10:04:50;;;;;;;13.15;2.05;;;9.40;99.90;;;;;;4860278;29;20103;-71
2022/12/26 10:07:45;;;;;;;12.73;2.38;;;9.20;99.90;;;;;;4844586;29;20072;-72
2022/12/26 10:10:13;;;;;;;10.27;1.77;;;9.00;99.90;;;;;;4860064;29;20050;-71
2022/12/26 10:13:04;;;;;;;11.98;2.10;;;8.80;99.90;;;;;;4859944;29;20048;-71
2022/12/26 10:15:38;;;;;;;10.52;2.38;;;8.80;99.90;;;;;;4844840;29;20065;-72
2022/12/26 10:18:21;;;;;;;8.32;1.92;;;8.70;99.90;;;;;;4859684;29;20050;-70
2022/12/26 10:21:10;;;;;;;10.98;1.85;;;8.50;99.90;;;;;;4844692;29;20562;-71
2022/12/26 10:23:44;;;;;;;12.00;2.08;;;8.50;99.90;;;;;;4860964;29;20131;-72
2022/12/26 10:26:21;;;;;;;12.23;2.00;;;8.60;99.90;;;;;;4859414;29;20061;-71
2022/12/26 10:28:54;;;;;;;9.38;1.90;;;8.70;99.90;;;;;;4860173;29;20502;-71
2022/12/26 10:31:58;;;;;;;11.13;1.77;;;8.60;99.90;;;;;;4859611;29;20049;-70
2022/12/26 10:34:34;;;;;;;9.82;1.90;;;8.70;99.90;;;;;;4858503;29;20064;-70
2022/12/26 10:37:19;;;;;;;13.43;1.98;;;8.60;99.90;;;;;;4859808;29;20390;-71
2022/12/26 10:40:18;;;;;;;11.75;2.17;;;8.60;99.90;;;;;;4858880;29;20513;-76
2022/12/26 10:42:49;;;;;;;9.73;1.50;;;8.70;99.90;;;;;;4860110;29;20057;-76
2022/12/26 10:45:19;;;;;;;11.23;1.83;;;8.70;99.90;;;;;;4860355;29;20163;-76
2022/12/26 10:47:48;;;;;;;8.25;1.38;;;8.70;99.90;;;;;;4861599;29;20072;-76
2022/12/26 10:50:20;;;;;;;5.07;1.20;;;8.70;99.90;;;;;;4845558;29;20052;-76
2022/12/26 10:52:46;;;;;;;6.55;1.15;;;8.70;99.90;;;;;;4860271;29;20557;-76
2022/12/26 10:55:15;;;;;;;7.85;1.02;;;8.80;99.90;;;;;;4860447;29;20189;-76
2022/12/26 10:57:43;;;;;;;5.90;1.30;;;8.80;99.90;;;;;;4860584;29;20054;-77
2022/12/26 11:00:28;;;;;;;7.63;1.27;;;8.80;99.90;;;;;;4860076;29;20100;-77
2022/12/26 11:03:10;;;;;;;6.78;1.30;;;8.70;99.90;;;;;;4860308;29;20410;-77
2022/12/26 11:05:42;;;;;;;7.43;1.25;;;8.70;99.90;;;;;;4860542;29;20422;-77
2022/12/26 11:08:17;;;;;;;9.13;1.42;;;8.60;99.90;;;;;;4844741;29;20409;-76
2022/12/26 11:10:59;;;;;;;6.88;1.60;;;8.60;99.90;;;;;;4860295;29;20398;-76
2022/12/26 11:13:25;;;;;;;10.98;1.63;;;8.50;99.90;;;;;;4844088;29;20054;-76
2022/12/26 11:15:52;;;;;;;9.25;1.52;;;8.50;99.90;;;;;;4859672;29;20205;-76
2022/12/26 11:18:47;;;;;;;8.65;1.30;;;8.60;99.90;;;;;;4859790;29;20500;-76
2022/12/26 11:21:19;;;;;;;6.82;1.25;;;8.60;99.90;;;;;;4859564;29;20098;-76
2022/12/26 11:23:54;;;;;;;7.72;1.35;;;8.60;99.90;;;;;;4859719;29;20060;-76
2022/12/26 11:26:22;;;;;;;7.28;1.33;;;8.60;99.90;;;;;;4844470;29;20049;-76
2022/12/26 11:29:05;;;;;;;8.75;1.33;;;8.40;99.90;;;;;;4859003;29;20124;-76
2022/12/26 11:31:31;;;;;;;4.78;1.02;;;8.30;99.90;;;;;;4859237;29;20111;-76
2022/12/26 11:33:59;;;;;;;6.03;1.00;;;8.20;99.90;;;;;;4859324;29;20057;-76
2022/12/26 11:36:26;;;;;;;7.05;1.30;;;8.20;99.90;;;;;;4858784;29;20064;-76
2022/12/26 11:38:56;;;;;;;3.35;1.35;;;8.00;99.90;;;;;;4858891;29;20046;-77
2022/12/26 11:41:31;;;;;;;7.50;1.13;;;8.00;99.90;;;;;;4860516;29;20063;-76
2022/12/26 11:43:58;;;;;;;7.13;1.05;;;7.90;99.90;;;;;;4856759;29;20057;-77
2022/12/26 11:46:33;;;;;;;5.07;1.10;;;7.90;99.90;;;;;;4858560;29;20133;-77
2022/12/26 11:48:59;;;;;;;8.20;1.58;;;7.90;99.90;;;;;;4859807;29;20068;-76
2022/12/26 11:51:39;;;;;;;9.18;1.45;;;7.80;99.90;;;;;;4858851;29;20048;-76
2022/12/26 11:54:35;;;;;;;8.35;1.30;;;7.80;99.90;;;;;;4856596;29;20101;-77
2022/12/26 11:57:25;;;;;;;8.77;1.63;;;7.70;99.90;;;;;;4824395;29;20137;-78
2022/12/26 11:59:52;;;;;;;12.10;1.75;;;7.70;99.90;;;;;;4852959;29;20119;-78
2022/12/26 12:02:21;;;;;;;;;;;7.70;99.90;;;;;;4843449;29;20052;-77
2022/12/26 12:04:48;;;;;;;10.10;1.75;;;7.70;99.90;;;;;;4855030;29;20010;-78
2022/12/26 12:07:41;;;;;;;10.65;1.70;;;7.70;99.90;;;;;;4843757;29;20053;-78
2022/12/26 12:10:50;;;;;;;9.02;1.55;;;7.60;99.90;;;;;;4841606;29;20547;-77
2022/12/26 12:13:42;;;;;;;8.63;2.05;;;7.60;99.90;;;;;;4854186;29;20125;-76
2022/12/26 12:16:30;;;;;;;9.93;1.90;;;7.60;99.90;;;;;;4856535;29;20053;-77
2022/12/26 12:19:34;;;;;;;10.55;1.75;;;7.60;99.90;;;;;;4857285;29;20133;-76
2022/12/26 12:22:07;;;;;;;9.90;1.60;;;7.50;99.90;;;;;;4857184;29;20051;-77
2022/12/26 12:25:10;;;;;;;9.70;1.77;;;7.50;99.90;;;;;;4858649;29;20839;-76
2022/12/26 12:27:53;;;;;;;12.63;2.28;;;7.50;99.90;;;;;;4840686;29;20053;-77
2022/12/26 12:30:42;;;;;;;11.68;1.92;;;7.50;99.90;;;;;;4857234;29;20049;-75
2022/12/26 12:33:27;;;;;;;12.63;1.80;;;7.50;99.90;;;;;;4855689;29;20058;-76
2022/12/26 12:36:08;;;;;;;12.02;1.80;;;7.60;99.90;;;;;;4857090;29;20079;-76
2022/12/26 12:38:45;;;;;;;6.93;1.90;;;7.70;99.90;;;;;;4841820;29;20078;-77
2022/12/26 12:41:16;;;;;;;11.07;2.15;;;7.80;99.90;;;;;;4842617;29;20044;-77
2022/12/26 12:43:48;;;;;;;8.10;1.63;;;7.80;99.90;;;;;;4857742;29;20096;-76
2022/12/26 12:46:41;;;;;;;12.13;2.08;;;7.80;99.90;;;;;;4843038;29;20148;-76
2022/12/26 12:49:35;;;;;;;13.82;2.10;;;7.60;99.90;;;;;;4859080;29;20065;-75
2022/12/26 12:52:25;;;;;;;11.52;2.08;;;7.60;99.90;;;;;;4843618;29;20057;-75
2022/12/26 12:55:10;;;;;;;12.45;2.15;;;7.60;99.90;;;;;;4840730;29;20081;-76
2022/12/26 12:57:41;;;;;;;8.82;1.98;;;7.50;99.90;;;;;;4851990;29;20077;-76
2022/12/26 13:00:26;;;;;;;12.18;1.98;;;7.50;99.90;;;;;;4857493;29;20906;-72
2022/12/26 13:03:04;;;;;;;10.27;2.30;;;7.50;99.90;;;;;;4854974;29;20041;-72
2022/12/26 13:05:33;;;;;;;8.60;1.77;;;7.50;99.90;;;;;;4857597;29;20037;-72
2022/12/26 13:08:21;;;;;;;11.55;2.03;;;7.40;99.90;;;;;;4856566;29;20052;-72
2022/12/26 13:10:56;;;;;;;9.70;2.00;;;7.40;99.90;;;;;;4843137;29;20049;-72
2022/12/26 13:13:37;;;;;;;10.13;2.17;;;7.40;99.90;;;;;;4860570;29;20136;-72
2022/12/26 13:16:21;;;;;;;10.73;1.80;;;7.30;99.90;;;;;;4832474;29;20106;-72
2022/12/26 13:18:57;;;;;;;10.95;2.00;;;7.30;99.90;;;;;;4860702;29;20045;-76
2022/12/26 13:21:25;;;;;;;9.88;1.63;;;7.20;99.70;;;;;;4862514;29;20042;-76
2022/12/26 13:24:24;;;;;;;10.48;1.95;;;7.20;99.90;;;;;;4864359;29;20128;-75
2022/12/26 13:27:02;;;;;;;11.18;2.38;;;7.20;99.90;;;;;;4860866;29;20049;-76
2022/12/26 13:29:35;;;;;;;10.70;2.10;;;7.30;99.90;;;;;;4859409;29;20088;-76
2022/12/26 13:32:05;;;;;;;9.98;1.88;;;7.50;99.90;;;;;;4857966;29;20487;-71
2022/12/26 13:34:31;;;;;;;12.23;2.10;;;7.50;99.90;;;;;;4828502;29;20487;-71
2022/12/26 13:36:59;;;;;;;6.57;1.33;;;7.50;99.90;;;;;;4838660;29;20501;-71
2022/12/26 13:39:24;;;;;;;17.02;2.22;;;7.50;99.90;;;;;;4844634;29;20049;-71
2022/12/26 13:44:52;;;;;;;4.97;1.30;;;7.40;98.70;;;;;;4857765;29;20053;-72
2022/12/26 13:47:32;;;;;;;7.53;1.60;;;7.30;99.90;;;;;;4842655;29;20049;-73
2022/12/26 13:50:18;;;;;;;7.53;1.73;;;7.20;99.90;;;;;;4841889;29;20049;-71
2022/12/26 13:52:45;;;;;;;8.85;1.73;;;7.20;99.90;;;;;;4841486;29;20574;-71
2022/12/26 13:55:11;;;;;;;8.85;2.08;;;7.20;99.90;;;;;;4841054;29;20065;-72
2022/12/26 13:57:40;;;;;;;9.17;1.57;;;7.10;99.90;;;;;;4841330;29;20057;-72
2022/12/26 14:00:41;;;;;;;9.77;1.77;;;7.10;99.90;;;;;;4825680;29;20291;-72
2022/12/26 14:03:40;;;;;;;10.80;2.00;;;7.10;99.80;;;;;;4841008;29;20060;-72
2022/12/26 14:06:54;;;;;;;10.85;1.70;;;7.10;99.90;;;;;;4837100;29;20136;-72
2022/12/26 14:09:54;;;;;;;9.80;1.95;;;7.10;99.90;;;;;;4801894;29;20065;-72
2022/12/26 14:12:26;;;;;;;6.63;1.38;;;7.10;99.90;;;;;;4841837;29;20050;-72
2022/12/26 14:15:00;;;;;;;4.57;1.20;;;7.10;99.90;;;;;;4841837;29;20050;-72
2022/12/26 14:17:50;;;;;;;6.55;1.20;;;7.00;99.90;;;;;;4841599;29;20075;-72
2022/12/26 14:20:35;;;;;;;10.57;1.83;;;7.10;99.90;;;;;;4825329;29;20049;-71
2022/12/26 14:23:18;;;;;;;8.73;1.80;;;7.20;99.90;;;;;;4845722;29;20052;-71
2022/12/26 14:26:10;;;;;;;9.15;1.52;;;7.20;99.90;;;;;;4860274;29;20100;-71
2022/12/26 14:28:49;;;;;;;6.70;1.95;;;7.10;99.90;;;;;;4860714;29;20132;-71
2022/12/26 14:31:45;;;;;;;11.50;1.70;;;7.10;99.90;;;;;;4860443;29;20386;-71
2022/12/26 14:34:46;;;;;;;9.45;1.85;;;6.90;99.90;;;;;;4859812;29;20057;-71
2022/12/26 14:37:29;;;;;;;10.35;1.88;;;6.80;99.90;;;;;;4844564;29;20085;-71
2022/12/26 14:40:07;;;;;;;10.57;1.83;;;6.70;99.90;;;;;;4859621;29;20494;-72
2022/12/26 14:43:12;;;;;;;11.32;2.03;;;6.60;99.90;;;;;;4859485;29;20050;-71
2022/12/26 14:45:44;;;;;;;12.75;1.80;;;6.50;99.90;;;;;;4859454;29;20045;-72
2022/12/26 14:48:30;;;;;;;8.77;1.55;;;6.50;99.90;;;;;;4859642;29;20105;-72
2022/12/26 14:51:18;;;;;;;9.32;1.60;;;6.40;99.90;;;;;;4843950;29;20064;-71
2022/12/26 14:54:05;;;;;;;8.82;2.15;;;6.40;99.90;;;;;;4857864;29;20041;-71
2022/12/26 14:56:36;;;;;;;6.57;1.60;;;6.30;99.90;;;;;;4866469;29;20059;-70
2022/12/26 14:59:32;;;;;;;10.57;1.58;;;6.30;99.90;;;;;;4858580;29;20045;-71
2022/12/26 15:02:07;;;;;;;9.82;1.67;;;6.30;99.90;;;;;;4855478;29;20046;-67
2022/12/26 15:04:52;;;;;;;6.65;1.20;;;6.30;99.90;;;;;;4857600;29;20048;-73
2022/12/26 15:07:43;;;;;;;7.82;1.40;;;6.30;99.90;;;;;;4844847;29;20050;-72
2022/12/26 15:10:41;;;;;;;7.30;1.40;;;6.20;99.90;;;;;;4848870;29;20056;-72
2022/12/26 15:13:44;;;;;;;10.57;1.73;;;6.10;99.90;;;;;;4862729;29;20053;-72
2022/12/26 15:16:19;;;;;;;9.63;1.70;;;6.10;99.90;;;;;;4838295;29;20045;-72
2022/12/26 15:19:20;;;;;;;7.97;2.28;;;6.10;99.90;;;;;;4835362;29;20045;-72
2022/12/26 15:22:04;;;;;;;7.95;1.73;;;6.00;99.90;;;;;;4848088;29;20053;-72